Time;durP1;ratioP1;P1;durP2;ratioP2;P2;SDS_P1;SDS_P2;PMS_P1;PMS_P2;Temp;Humidity;BMP_temperature;BMP_pressure;BME280_temperature;BME280_humidity;BME280_pressure;Samples;Min_cycle;Max_cycle;Signal;HPM_P1;HPM_P2
2023/04/21 00:00:40;;;;;;;29.98;20.60;;;4.10;99.90;;;;;;478497;248;27491;-72
2023/04/21 00:02:41;;;;;;;31.83;21.62;;;4.20;99.90;;;;;;478467;248;27556;-72
2023/04/21 00:04:44;;;;;;;31.20;21.00;;;4.20;99.90;;;;;;478421;248;27968;-72
2023/04/21 00:06:44;;;;;;;34.13;22.37;;;4.30;99.90;;;;;;478321;248;28000;-72
2023/04/21 00:08:44;;;;;;;27.92;19.45;;;4.30;99.90;;;;;;478506;248;27610;-72
2023/04/21 00:10:46;;;;;;;28.48;19.60;;;4.30;99.90;;;;;;478475;243;27642;-72
2023/04/21 00:12:47;;;;;;;30.77;21.48;;;4.30;99.90;;;;;;478491;248;27542;-72
2023/04/21 00:14:48;;;;;;;32.13;21.33;;;4.30;99.90;;;;;;478472;248;27489;-72
2023/04/21 00:16:51;;;;;;;28.83;21.05;;;4.30;99.90;;;;;;478501;248;27953;-72
2023/04/21 00:18:51;;;;;;;23.55;18.08;;;4.30;99.90;;;;;;478409;248;28087;-72
2023/04/21 00:20:52;;;;;;;22.92;16.77;;;4.30;99.90;;;;;;478449;243;27474;-72
2023/04/21 00:22:53;;;;;;;25.83;18.20;;;4.30;99.90;;;;;;478393;248;27554;-72
2023/04/21 00:24:55;;;;;;;27.80;18.35;;;4.20;99.90;;;;;;478481;248;28002;-72
2023/04/21 00:26:56;;;;;;;30.55;21.20;;;4.20;99.90;;;;;;478540;248;27580;-72
2023/04/21 00:28:57;;;;;;;22.62;17.40;;;4.30;99.90;;;;;;478523;248;27614;-72
2023/04/21 00:30:58;;;;;;;19.42;14.48;;;4.20;99.90;;;;;;478509;248;27963;-72
2023/04/21 00:33:00;;;;;;;22.90;17.02;;;4.20;99.90;;;;;;478230;248;27630;-72
2023/04/21 00:35:01;;;;;;;19.87;15.43;;;4.10;99.90;;;;;;478467;248;27526;-72
2023/04/21 00:37:02;;;;;;;20.80;15.90;;;4.10;99.90;;;;;;478398;248;27507;-72
2023/04/21 00:39:03;;;;;;;21.40;15.90;;;4.10;99.90;;;;;;478493;248;27671;-72
2023/04/21 00:41:05;;;;;;;21.17;15.27;;;4.10;99.90;;;;;;478513;248;27581;-72
2023/04/21 00:43:06;;;;;;;20.37;14.95;;;4.00;99.90;;;;;;478478;248;28026;-72
2023/04/21 00:45:07;;;;;;;17.48;13.23;;;4.00;99.90;;;;;;478437;248;28087;-72
2023/04/21 00:47:08;;;;;;;22.75;15.52;;;4.00;99.90;;;;;;478516;248;27491;-72
2023/04/21 00:49:12;;;;;;;21.17;15.23;;;4.00;99.90;;;;;;478494;248;27558;-72
2023/04/21 00:51:11;;;;;;;21.77;15.60;;;4.00;99.90;;;;;;478357;248;27591;-72
2023/04/21 00:53:12;;;;;;;16.25;12.52;;;3.90;99.90;;;;;;478457;248;27561;-71
2023/04/21 00:55:13;;;;;;;21.12;15.50;;;3.90;99.90;;;;;;478476;248;27967;-73
2023/04/21 00:57:15;;;;;;;20.52;15.50;;;3.80;99.90;;;;;;478517;248;27613;-71
2023/04/21 00:59:16;;;;;;;21.20;15.90;;;3.80;99.90;;;;;;478504;248;27533;-72
2023/04/21 01:01:17;;;;;;;21.30;15.95;;;3.70;99.90;;;;;;478487;248;27526;-71
2023/04/21 01:03:19;;;;;;;19.15;14.13;;;3.80;99.90;;;;;;478462;248;28088;-71
2023/04/21 01:05:20;;;;;;;18.33;14.40;;;3.70;99.90;;;;;;478479;248;28085;-72
2023/04/21 01:07:21;;;;;;;19.58;13.95;;;3.70;99.90;;;;;;478494;248;27495;-72
2023/04/21 01:09:22;;;;;;;20.65;15.30;;;3.70;99.90;;;;;;478481;248;27615;-72
2023/04/21 01:11:24;;;;;;;17.55;13.93;;;3.60;99.90;;;;;;478533;248;27875;-72
2023/04/21 01:13:25;;;;;;;18.60;13.62;;;3.50;99.90;;;;;;478493;248;27551;-71
2023/04/21 01:15:29;;;;;;;20.85;15.02;;;3.40;99.90;;;;;;478466;243;27539;-72
2023/04/21 01:17:29;;;;;;;25.42;18.25;;;3.30;99.90;;;;;;478259;248;27958;-72
2023/04/21 01:19:29;;;;;;;21.73;15.48;;;3.40;99.90;;;;;;478364;244;28002;-72
2023/04/21 01:21:31;;;;;;;18.70;15.20;;;3.30;99.90;;;;;;478523;248;27621;-72
2023/04/21 01:23:31;;;;;;;21.37;14.52;;;3.30;99.90;;;;;;478443;248;27494;-71
2023/04/21 01:25:32;;;;;;;16.87;13.25;;;3.30;99.90;;;;;;478441;248;27615;-72
2023/04/21 01:27:34;;;;;;;21.75;14.63;;;3.30;99.90;;;;;;478491;248;27545;-72
2023/04/21 01:29:35;;;;;;;17.77;13.45;;;3.30;99.90;;;;;;478507;248;27534;-72
2023/04/21 01:31:36;;;;;;;20.50;14.13;;;3.30;99.90;;;;;;478510;248;27983;-73
2023/04/21 01:33:37;;;;;;;21.55;15.43;;;3.30;99.90;;;;;;478490;248;27960;-72
2023/04/21 01:35:39;;;;;;;20.65;14.38;;;3.30;99.90;;;;;;478430;248;27574;-72
2023/04/21 01:37:40;;;;;;;20.42;14.80;;;3.30;99.90;;;;;;478477;248;27515;-69
2023/04/21 01:39:41;;;;;;;21.17;15.85;;;3.30;99.90;;;;;;478499;248;27533;-71
2023/04/21 01:41:42;;;;;;;18.30;13.95;;;3.20;99.90;;;;;;478507;248;27542;-72
2023/04/21 01:43:44;;;;;;;22.05;15.00;;;3.20;99.90;;;;;;478456;248;27545;-71
2023/04/21 01:45:45;;;;;;;20.70;14.65;;;3.20;99.90;;;;;;478408;248;28029;-71
2023/04/21 01:47:46;;;;;;;19.45;14.45;;;3.20;99.90;;;;;;478490;248;28012;-71
2023/04/21 01:49:47;;;;;;;22.52;16.67;;;3.20;99.90;;;;;;478497;248;27517;-71
2023/04/21 01:51:49;;;;;;;18.40;14.43;;;3.20;99.90;;;;;;478499;248;27617;-71
2023/04/21 01:53:50;;;;;;;17.35;13.57;;;3.10;99.90;;;;;;478487;248;27498;-71
2023/04/21 01:55:51;;;;;;;19.87;13.65;;;3.10;99.90;;;;;;478436;248;27599;-71
2023/04/21 01:57:52;;;;;;;16.40;12.93;;;3.00;99.90;;;;;;478506;248;28021;-72
2023/04/21 01:59:54;;;;;;;19.65;14.20;;;2.90;99.90;;;;;;478502;248;27536;-71
2023/04/21 02:01:55;;;;;;;21.05;14.63;;;2.80;99.90;;;;;;478465;248;28110;-71
2023/04/21 02:03:56;;;;;;;18.45;14.77;;;2.70;99.90;;;;;;478444;243;29149;-71
2023/04/21 02:05:58;;;;;;;21.70;15.85;;;2.70;99.90;;;;;;478394;248;27525;-71
2023/04/21 02:07:59;;;;;;;24.87;16.55;;;2.60;99.90;;;;;;478514;248;27614;-71
2023/04/21 02:10:00;;;;;;;20.42;15.00;;;2.60;99.90;;;;;;478476;248;27478;-71
2023/04/21 02:12:02;;;;;;;21.00;14.70;;;2.70;99.90;;;;;;478482;248;27566;-71
2023/04/21 02:14:03;;;;;;;21.00;14.85;;;2.70;99.90;;;;;;478422;248;27581;-71
2023/04/21 02:16:04;;;;;;;21.70;15.98;;;2.70;99.90;;;;;;478395;248;27926;-71
2023/04/21 02:18:07;;;;;;;23.38;16.02;;;2.70;99.90;;;;;;478460;248;28059;-71
2023/04/21 02:20:06;;;;;;;20.75;15.75;;;2.80;99.90;;;;;;478334;248;27935;-71
2023/04/21 02:22:09;;;;;;;20.55;15.35;;;2.90;99.90;;;;;;478464;248;27527;-71
2023/04/21 02:24:09;;;;;;;28.60;18.12;;;2.90;99.90;;;;;;478397;248;27914;-71
2023/04/21 02:26:10;;;;;;;20.45;15.80;;;3.20;99.90;;;;;;478460;248;27615;-71
2023/04/21 02:28:11;;;;;;;22.33;15.43;;;3.10;99.90;;;;;;478495;248;27614;-71
2023/04/21 02:30:13;;;;;;;25.27;17.98;;;3.10;99.90;;;;;;478453;248;27972;-71
2023/04/21 02:32:14;;;;;;;29.10;18.23;;;3.20;99.90;;;;;;478465;248;28079;-71
2023/04/21 02:34:15;;;;;;;28.35;19.27;;;3.30;99.90;;;;;;478460;248;27658;-71
2023/04/21 02:36:16;;;;;;;22.70;16.37;;;3.30;99.90;;;;;;478482;248;27490;-71
2023/04/21 02:38:18;;;;;;;24.17;17.65;;;3.40;99.90;;;;;;478524;248;27543;-71
2023/04/21 02:40:20;;;;;;;27.02;19.02;;;3.40;99.90;;;;;;478413;248;27483;-71
2023/04/21 02:42:20;;;;;;;20.30;15.93;;;3.50;99.90;;;;;;478463;248;27528;-71
2023/04/21 02:44:21;;;;;;;21.90;16.65;;;3.50;99.90;;;;;;478314;248;27678;-72
2023/04/21 02:46:23;;;;;;;23.20;18.08;;;3.60;99.90;;;;;;478466;248;27989;-71
2023/04/21 02:48:25;;;;;;;26.15;16.55;;;3.60;99.90;;;;;;478513;248;28102;-71
2023/04/21 02:50:25;;;;;;;22.90;16.73;;;3.60;99.90;;;;;;478406;248;27500;-71
2023/04/21 02:52:26;;;;;;;33.80;22.17;;;3.60;99.90;;;;;;478464;248;27577;-71
2023/04/21 02:54:28;;;;;;;31.45;20.05;;;3.60;99.90;;;;;;478448;248;27515;-71
2023/04/21 02:56:30;;;;;;;26.37;19.40;;;3.70;99.90;;;;;;478504;248;27578;-71
2023/04/21 02:58:30;;;;;;;23.45;17.60;;;3.60;99.90;;;;;;478362;248;27518;-71
2023/04/21 03:00:31;;;;;;;22.62;16.48;;;3.50;99.90;;;;;;478473;248;27939;-71
2023/04/21 03:02:33;;;;;;;24.73;17.10;;;3.50;99.90;;;;;;478253;248;28056;-71
2023/04/21 03:04:35;;;;;;;24.15;16.77;;;3.40;99.90;;;;;;478421;248;27557;-71
2023/04/21 03:06:35;;;;;;;25.50;16.77;;;3.40;99.90;;;;;;478468;248;27539;-71
2023/04/21 03:08:36;;;;;;;23.87;16.90;;;3.30;99.90;;;;;;478483;248;27608;-72
2023/04/21 03:10:38;;;;;;;21.73;16.95;;;3.30;99.90;;;;;;478469;248;27594;-71
2023/04/21 03:12:39;;;;;;;22.37;15.93;;;3.30;99.90;;;;;;478341;248;27519;-71
2023/04/21 03:14:41;;;;;;;23.95;16.58;;;3.20;99.90;;;;;;478394;248;28956;-71
2023/04/21 03:16:42;;;;;;;24.23;17.58;;;3.30;99.90;;;;;;478509;248;27966;-71
2023/04/21 03:18:43;;;;;;;21.27;16.37;;;3.20;99.90;;;;;;478495;248;27526;-71
2023/04/21 03:20:44;;;;;;;19.90;15.30;;;3.10;99.90;;;;;;478479;243;27608;-71
2023/04/21 03:22:45;;;;;;;23.23;16.35;;;3.10;99.90;;;;;;478447;248;27625;-71
2023/04/21 03:24:47;;;;;;;20.05;15.52;;;3.10;99.90;;;;;;478448;248;27620;-71
2023/04/21 03:26:48;;;;;;;22.33;17.15;;;3.10;99.90;;;;;;478493;248;27650;-71
2023/04/21 03:28:49;;;;;;;30.92;20.35;;;3.10;99.90;;;;;;478484;248;27542;-71
2023/04/21 03:30:50;;;;;;;27.33;19.52;;;2.90;99.90;;;;;;478453;248;28002;-71
2023/04/21 03:32:52;;;;;;;40.78;24.95;;;2.90;99.90;;;;;;478465;248;29106;-71
2023/04/21 03:34:53;;;;;;;23.75;18.20;;;2.90;99.90;;;;;;478446;248;27636;-71
2023/04/21 03:36:54;;;;;;;40.25;25.83;;;3.00;99.90;;;;;;478444;248;27621;-71
2023/04/21 03:38:57;;;;;;;32.92;19.55;;;3.10;99.90;;;;;;478451;248;27523;-71
2023/04/21 03:40:57;;;;;;;32.72;22.75;;;3.20;99.90;;;;;;478359;248;27505;-71
2023/04/21 03:42:58;;;;;;;25.85;18.92;;;3.20;99.90;;;;;;478452;248;27653;-71
2023/04/21 03:44:59;;;;;;;26.73;19.15;;;3.20;99.90;;;;;;478403;248;28104;-72
2023/04/21 03:47:02;;;;;;;22.80;16.27;;;3.30;99.90;;;;;;478473;248;29152;-71
2023/04/21 03:49:02;;;;;;;27.20;18.83;;;3.30;99.90;;;;;;478369;248;27628;-71
2023/04/21 03:51:03;;;;;;;23.95;17.00;;;3.40;99.90;;;;;;478471;248;27495;-71
2023/04/21 03:53:04;;;;;;;25.45;18.05;;;3.40;99.90;;;;;;478464;248;27539;-71
2023/04/21 03:55:10;;;;;;;21.70;16.08;;;3.40;99.90;;;;;;478375;248;27562;-71
2023/04/21 03:57:07;;;;;;;24.73;16.65;;;3.50;99.90;;;;;;478149;248;27498;-71
2023/04/21 03:59:08;;;;;;;21.75;16.12;;;3.40;99.90;;;;;;478427;248;28081;-71
2023/04/21 04:01:09;;;;;;;23.23;16.92;;;3.40;99.90;;;;;;478468;248;28089;-71
2023/04/21 04:03:10;;;;;;;35.97;21.50;;;3.30;99.90;;;;;;478493;248;27575;-71
2023/04/21 04:05:12;;;;;;;25.75;18.60;;;3.30;99.90;;;;;;478436;248;27567;-72
2023/04/21 04:07:13;;;;;;;24.50;17.12;;;3.30;99.90;;;;;;478484;248;27483;-71
2023/04/21 04:09:14;;;;;;;27.05;18.00;;;3.20;99.90;;;;;;478464;248;27626;-71
2023/04/21 04:11:15;;;;;;;26.27;18.45;;;3.10;99.90;;;;;;478539;248;27594;-71
2023/04/21 04:13:17;;;;;;;24.80;17.62;;;3.10;99.90;;;;;;478546;248;27560;-71
2023/04/21 04:15:18;;;;;;;23.87;16.60;;;3.00;99.90;;;;;;478432;248;28008;-71
2023/04/21 04:17:19;;;;;;;21.73;15.40;;;3.00;99.90;;;;;;478426;248;29132;-71
2023/04/21 04:19:21;;;;;;;20.30;14.60;;;2.90;99.90;;;;;;478483;248;27526;-71
2023/04/21 04:21:22;;;;;;;22.48;15.63;;;2.90;99.90;;;;;;478551;248;27534;-72
2023/04/21 04:23:23;;;;;;;17.67;12.65;;;2.70;99.90;;;;;;478540;248;27518;-70
2023/04/21 04:25:24;;;;;;;20.45;16.02;;;2.70;99.90;;;;;;478425;248;27646;-71
2023/04/21 04:27:26;;;;;;;19.65;14.52;;;2.60;99.90;;;;;;478504;248;27536;-71
2023/04/21 04:29:27;;;;;;;20.25;15.65;;;2.60;99.90;;;;;;478450;248;27950;-71
2023/04/21 04:31:29;;;;;;;21.33;14.68;;;2.50;99.90;;;;;;478478;248;28003;-72
2023/04/21 04:33:29;;;;;;;26.95;18.12;;;2.50;99.90;;;;;;478477;248;27509;-71
2023/04/21 04:35:31;;;;;;;21.85;15.45;;;2.60;99.90;;;;;;478405;248;27523;-72
2023/04/21 04:37:33;;;;;;;24.35;17.30;;;2.60;99.90;;;;;;478469;248;27486;-71
2023/04/21 04:39:33;;;;;;;21.83;16.10;;;2.60;99.90;;;;;;478460;248;27498;-71
2023/04/21 04:41:35;;;;;;;26.52;17.27;;;2.60;99.90;;;;;;478488;248;27550;-72
2023/04/21 04:43:37;;;;;;;22.48;17.05;;;2.60;99.90;;;;;;478468;248;27491;-71
2023/04/21 04:45:37;;;;;;;23.75;16.85;;;2.60;99.90;;;;;;478289;248;28102;-71
2023/04/21 04:47:38;;;;;;;27.73;18.30;;;2.50;99.90;;;;;;478456;243;28717;-71
2023/04/21 04:49:39;;;;;;;25.92;17.77;;;2.50;99.90;;;;;;478196;243;27444;-71
2023/04/21 04:51:41;;;;;;;28.73;18.58;;;2.50;99.90;;;;;;478468;248;27623;-71
2023/04/21 04:53:42;;;;;;;35.63;20.90;;;2.60;99.90;;;;;;478393;248;27561;-71
2023/04/21 04:55:43;;;;;;;23.87;17.42;;;2.60;99.90;;;;;;478343;248;27546;-70
2023/04/21 04:57:44;;;;;;;28.45;19.35;;;2.70;99.90;;;;;;478442;248;27566;-71
2023/04/21 04:59:46;;;;;;;24.63;16.25;;;2.70;99.90;;;;;;478457;248;27966;-71
2023/04/21 05:01:47;;;;;;;24.15;16.80;;;2.60;99.90;;;;;;478427;248;28010;-71
2023/04/21 05:03:48;;;;;;;19.90;15.45;;;2.50;99.90;;;;;;478470;248;27517;-71
2023/04/21 05:05:49;;;;;;;20.08;14.63;;;2.50;99.90;;;;;;478108;248;27546;-71
2023/04/21 05:07:51;;;;;;;20.10;14.73;;;2.40;99.90;;;;;;478516;248;27564;-72
2023/04/21 05:09:53;;;;;;;21.37;14.23;;;2.40;99.90;;;;;;478485;248;27484;-70
2023/04/21 05:11:53;;;;;;;19.87;14.20;;;2.50;99.90;;;;;;478442;248;27549;-71
2023/04/21 05:13:54;;;;;;;22.05;15.90;;;2.50;99.90;;;;;;478447;248;27537;-71
2023/04/21 05:15:56;;;;;;;21.75;15.73;;;2.70;99.90;;;;;;478430;243;28043;-71
2023/04/21 05:17:57;;;;;;;20.98;15.05;;;2.80;99.90;;;;;;478481;248;29176;-72
2023/04/21 05:19:58;;;;;;;21.92;15.88;;;2.90;99.90;;;;;;478478;248;27543;-71
2023/04/21 05:22:05;;;;;;;23.55;16.12;;;3.00;99.90;;;;;;477334;248;36287;-71
2023/04/21 05:24:04;;;;;;;24.55;17.20;;;3.00;99.90;;;;;;478335;248;27652;-71
2023/04/21 05:26:05;;;;;;;21.27;15.27;;;3.10;99.90;;;;;;478459;248;27634;-71
2023/04/21 05:28:06;;;;;;;20.05;14.95;;;3.10;99.90;;;;;;478465;248;27935;-71
2023/04/21 05:30:08;;;;;;;21.05;14.98;;;3.10;99.90;;;;;;478459;248;28013;-72
2023/04/21 05:32:11;;;;;;;22.77;15.85;;;3.10;99.90;;;;;;478455;248;27601;-71
2023/04/21 05:34:10;;;;;;;19.90;14.63;;;3.10;99.90;;;;;;478392;248;27500;-71
2023/04/21 05:36:11;;;;;;;18.73;13.77;;;3.10;99.90;;;;;;475668;243;27575;-71
2023/04/21 05:38:13;;;;;;;16.05;12.77;;;3.10;99.90;;;;;;472832;249;27507;-71
2023/04/21 05:40:14;;;;;;;16.40;12.93;;;3.20;99.90;;;;;;472785;249;27483;-71
2023/04/21 05:42:17;;;;;;;24.17;16.70;;;3.50;99.90;;;;;;472483;250;28957;-71
2023/04/21 05:44:17;;;;;;;28.62;15.00;;;3.50;99.90;;;;;;472769;250;27872;-71
2023/04/21 05:46:18;;;;;;;22.20;15.82;;;3.70;99.90;;;;;;472873;250;27494;-71
2023/04/21 05:48:19;;;;;;;18.52;14.05;;;3.70;99.90;;;;;;472848;249;27498;-72
2023/04/21 05:50:20;;;;;;;25.90;17.77;;;3.80;99.90;;;;;;472887;250;27455;-71
2023/04/21 05:52:22;;;;;;;22.92;16.48;;;3.90;99.90;;;;;;472873;249;27585;-71
2023/04/21 05:54:23;;;;;;;21.65;15.75;;;4.00;99.90;;;;;;472820;249;27979;-71
2023/04/21 05:56:24;;;;;;;20.77;15.18;;;4.10;99.90;;;;;;472872;249;27854;-72
2023/04/21 05:58:25;;;;;;;18.33;12.93;;;4.30;99.90;;;;;;472915;249;27489;-71
2023/04/21 06:00:27;;;;;;;36.35;20.60;;;4.10;99.90;;;;;;472842;249;27577;-71
2023/04/21 06:02:28;;;;;;;30.83;20.15;;;4.20;99.90;;;;;;472931;250;27807;-71
2023/04/21 06:04:29;;;;;;;28.08;18.75;;;4.20;99.90;;;;;;472768;250;27479;-71
2023/04/21 06:06:30;;;;;;;30.70;20.50;;;4.30;99.90;;;;;;472875;250;28044;-72
2023/04/21 06:08:32;;;;;;;25.70;19.02;;;4.50;99.90;;;;;;472954;249;27415;-71
2023/04/21 06:10:33;;;;;;;29.20;18.87;;;4.60;99.90;;;;;;472866;250;27486;-71
2023/04/21 06:12:34;;;;;;;26.92;18.70;;;4.80;99.90;;;;;;472929;250;27531;-72
2023/04/21 06:14:35;;;;;;;24.60;16.85;;;5.00;99.90;;;;;;472878;250;27427;-72
2023/04/21 06:16:37;;;;;;;28.55;17.67;;;5.00;99.90;;;;;;472830;249;27907;-72
2023/04/21 06:18:38;;;;;;;22.40;16.87;;;5.20;99.90;;;;;;472932;249;28557;-72
2023/04/21 06:20:42;;;;;;;25.15;17.45;;;5.20;99.90;;;;;;472934;250;27498;-72
2023/04/21 06:22:43;;;;;;;21.30;16.20;;;5.10;99.90;;;;;;472895;249;27424;-75
2023/04/21 06:24:44;;;;;;;24.48;16.87;;;5.00;99.90;;;;;;472860;250;27460;-76
2023/04/21 06:26:46;;;;;;;28.70;19.02;;;5.00;99.90;;;;;;472850;249;27411;-75
2023/04/21 06:28:47;;;;;;;26.40;18.10;;;5.10;99.90;;;;;;472857;249;27454;-76
2023/04/21 06:30:48;;;;;;;21.90;15.30;;;5.00;99.90;;;;;;472897;250;28650;-75
2023/04/21 06:32:50;;;;;;;22.50;14.65;;;4.90;99.90;;;;;;472874;250;27500;-75
2023/04/21 06:34:51;;;;;;;23.42;16.30;;;4.90;99.90;;;;;;472825;250;27539;-74
2023/04/21 06:36:52;;;;;;;24.83;16.52;;;5.10;99.90;;;;;;472868;250;27415;-74
2023/04/21 06:38:53;;;;;;;22.08;14.82;;;4.90;99.90;;;;;;472898;250;27464;-75
2023/04/21 06:40:55;;;;;;;17.37;12.85;;;5.10;99.90;;;;;;476884;247;27990;-77
2023/04/21 06:42:56;;;;;;;23.60;15.32;;;5.20;99.90;;;;;;478528;248;27507;-77
2023/04/21 06:44:57;;;;;;;20.02;14.13;;;5.30;99.90;;;;;;477199;248;27520;-75
2023/04/21 06:46:58;;;;;;;18.08;13.38;;;5.40;99.90;;;;;;472878;250;27404;-75
2023/04/21 06:49:00;;;;;;;17.27;13.50;;;5.40;99.90;;;;;;472881;250;28121;-75
2023/04/21 06:51:01;;;;;;;18.20;13.52;;;5.50;99.90;;;;;;475466;248;27919;-76
2023/04/21 06:53:02;;;;;;;17.08;12.13;;;5.60;99.90;;;;;;477947;249;27474;-74
2023/04/21 06:55:03;;;;;;;24.58;18.80;;;5.90;99.90;;;;;;474108;250;27628;-74
2023/04/21 06:57:05;;;;;;;18.27;14.48;;;5.60;99.90;;;;;;476775;249;27469;-75
2023/04/21 06:59:06;;;;;;;17.50;13.70;;;5.80;99.90;;;;;;468076;250;27881;-75
2023/04/21 07:01:07;;;;;;;18.65;13.48;;;5.70;99.90;;;;;;477982;248;27509;-75
2023/04/21 07:03:09;;;;;;;16.05;13.02;;;5.70;99.90;;;;;;478449;248;27491;-75
2023/04/21 07:05:10;;;;;;;20.27;13.82;;;5.70;99.90;;;;;;478265;248;27486;-75
2023/04/21 07:07:13;;;;;;;18.15;13.27;;;5.70;99.90;;;;;;478435;248;28768;-75
2023/04/21 07:09:12;;;;;;;15.98;12.27;;;5.70;99.90;;;;;;478300;248;27508;-75
2023/04/21 07:11:14;;;;;;;16.23;11.82;;;5.80;99.90;;;;;;478430;248;27547;-75
2023/04/21 07:13:16;;;;;;;18.75;13.30;;;6.00;99.90;;;;;;478478;248;27570;-74
2023/04/21 07:15:16;;;;;;;18.02;13.65;;;5.90;99.90;;;;;;478277;243;28077;-74
2023/04/21 07:17:17;;;;;;;16.23;12.40;;;6.00;99.90;;;;;;478386;248;28161;-75
2023/04/21 07:19:19;;;;;;;18.08;13.02;;;6.00;99.90;;;;;;478236;248;27512;-74
2023/04/21 07:21:20;;;;;;;19.40;14.40;;;6.10;99.90;;;;;;472813;250;27579;-75
2023/04/21 07:23:21;;;;;;;23.00;14.48;;;6.10;99.90;;;;;;472860;250;27435;-77
2023/04/21 07:25:23;;;;;;;16.60;12.70;;;6.30;99.90;;;;;;472766;248;28050;-76
2023/04/21 07:27:24;;;;;;;13.57;10.70;;;6.40;99.90;;;;;;472837;250;29391;-75
2023/04/21 07:29:25;;;;;;;19.40;11.67;;;6.40;99.90;;;;;;472955;248;27694;-74
2023/04/21 07:31:26;;;;;;;14.73;11.80;;;6.50;99.90;;;;;;472912;250;28161;-75
2023/04/21 07:33:27;;;;;;;16.47;12.27;;;6.60;99.90;;;;;;472816;250;27823;-75
2023/04/21 07:35:29;;;;;;;14.50;11.67;;;6.60;99.90;;;;;;474865;248;27909;-75
2023/04/21 07:37:30;;;;;;;14.10;11.33;;;6.70;99.90;;;;;;478013;249;27967;-76
2023/04/21 07:39:31;;;;;;;14.90;11.17;;;6.80;99.90;;;;;;475598;250;28007;-75
2023/04/21 07:41:33;;;;;;;19.53;14.20;;;6.90;99.90;;;;;;474468;249;28310;-75
2023/04/21 07:43:34;;;;;;;14.90;11.23;;;6.90;99.90;;;;;;478280;248;27928;-75
2023/04/21 07:45:35;;;;;;;16.77;13.13;;;7.00;99.90;;;;;;478182;245;27967;-75
2023/04/21 07:47:36;;;;;;;13.27;10.47;;;7.00;99.90;;;;;;478306;248;27797;-75
2023/04/21 07:49:38;;;;;;;12.63;10.23;;;7.20;99.90;;;;;;478332;245;28427;-75
2023/04/21 07:51:39;;;;;;;12.53;10.20;;;7.20;99.90;;;;;;478250;248;28477;-75
2023/04/21 07:53:40;;;;;;;15.03;11.00;;;7.20;99.90;;;;;;478306;248;28088;-75
2023/04/21 07:55:41;;;;;;;13.17;10.47;;;7.40;99.90;;;;;;481296;246;28768;-75
2023/04/21 07:57:43;;;;;;;11.47;9.73;;;7.50;99.90;;;;;;476467;249;27798;-74
2023/04/21 07:59:44;;;;;;;11.80;9.03;;;7.50;99.90;;;;;;474244;250;27954;-75
2023/04/21 08:01:45;;;;;;;10.80;8.63;;;7.60;99.90;;;;;;474402;249;27959;-74
2023/04/21 08:03:46;;;;;;;9.67;7.97;;;7.60;99.90;;;;;;478324;248;27986;-75
2023/04/21 08:05:48;;;;;;;12.20;8.50;;;7.70;99.90;;;;;;478285;245;28317;-75
2023/04/21 08:07:49;;;;;;;13.53;7.73;;;7.90;99.90;;;;;;478242;248;28580;-75
2023/04/21 08:09:50;;;;;;;8.13;7.17;;;7.90;99.90;;;;;;480106;245;28423;-75
2023/04/21 08:11:51;;;;;;;11.10;7.70;;;7.90;99.90;;;;;;484252;245;28434;-75
2023/04/21 08:13:53;;;;;;;8.90;7.20;;;8.10;99.90;;;;;;484323;245;27901;-75
2023/04/21 08:15:54;;;;;;;10.40;7.30;;;8.20;99.90;;;;;;481025;242;28012;-75
2023/04/21 08:17:55;;;;;;;8.33;7.10;;;8.20;99.90;;;;;;476916;249;27985;-75
2023/04/21 08:19:56;;;;;;;10.23;6.40;;;8.30;99.90;;;;;;469440;250;27961;-74
2023/04/21 08:21:58;;;;;;;9.90;6.50;;;8.40;99.90;;;;;;474378;249;27673;-75
2023/04/21 08:23:59;;;;;;;9.10;6.87;;;8.40;99.90;;;;;;478219;248;28366;-75
2023/04/21 08:26:00;;;;;;;10.83;6.77;;;8.50;99.90;;;;;;475471;245;27921;-75
2023/04/21 08:28:01;;;;;;;6.97;6.27;;;8.50;99.90;;;;;;474174;249;28067;-75
2023/04/21 08:30:03;;;;;;;7.70;5.93;;;8.60;99.90;;;;;;478587;245;27552;-75
2023/04/21 08:32:04;;;;;;;7.07;6.10;;;8.60;99.90;;;;;;484477;245;27992;-75
2023/04/21 08:34:06;;;;;;;8.10;7.10;;;8.70;99.90;;;;;;484425;245;28516;-75
2023/04/21 08:36:06;;;;;;;7.73;5.27;;;8.70;99.90;;;;;;476861;245;28119;-74
2023/04/21 08:38:08;;;;;;;6.73;5.60;;;8.90;99.90;;;;;;476953;249;28407;-75
2023/04/21 08:40:09;;;;;;;7.07;5.70;;;8.90;99.90;;;;;;477335;245;28570;-75
2023/04/21 08:42:10;;;;;;;6.33;5.20;;;9.10;99.90;;;;;;471220;252;28474;-75
2023/04/21 08:44:11;;;;;;;6.10;5.27;;;9.10;99.90;;;;;;471325;252;27904;-75
2023/04/21 08:46:13;;;;;;;5.40;4.90;;;9.40;99.90;;;;;;475273;247;28011;-74
2023/04/21 08:48:18;;;;;;;6.30;4.47;;;9.10;99.90;;;;;;475488;250;28019;-76
2023/04/21 08:50:18;;;;;;;6.43;5.20;;;9.10;99.90;;;;;;473536;247;28353;-74
2023/04/21 08:52:19;;;;;;;5.13;4.60;;;9.10;99.90;;;;;;475261;250;29191;-74
2023/04/21 08:54:21;;;;;;;4.30;3.90;;;9.40;99.90;;;;;;474275;249;28368;-75
2023/04/21 08:56:22;;;;;;;5.10;4.13;;;9.50;99.90;;;;;;476199;249;28201;-77
2023/04/21 08:58:23;;;;;;;5.13;4.60;;;9.50;99.90;;;;;;468582;254;27803;-77
2023/04/21 09:00:24;;;;;;;5.97;4.40;;;9.70;99.90;;;;;;471657;249;27652;-77
2023/04/21 09:02:26;;;;;;;5.90;4.70;;;9.70;99.90;;;;;;472893;250;28065;-77
2023/04/21 09:04:27;;;;;;;4.43;4.03;;;9.70;99.90;;;;;;472952;247;28060;-74
2023/04/21 09:06:28;;;;;;;4.20;3.70;;;9.90;99.90;;;;;;478469;248;28048;-76
2023/04/21 09:08:29;;;;;;;4.30;3.90;;;9.90;99.90;;;;;;478379;248;28101;-76
2023/04/21 09:10:31;;;;;;;5.73;4.27;;;10.10;99.90;;;;;;478328;248;27948;-75
2023/04/21 09:12:32;;;;;;;4.40;3.70;;;10.00;99.90;;;;;;478443;248;28148;-76
2023/04/21 09:14:33;;;;;;;3.80;3.40;;;10.30;99.90;;;;;;478350;248;28181;-77
2023/04/21 09:16:34;;;;;;;4.93;3.90;;;10.30;99.90;;;;;;478451;248;28003;-77
2023/04/21 09:18:36;;;;;;;4.17;3.70;;;10.40;99.90;;;;;;478427;248;28037;-76
2023/04/21 09:20:37;;;;;;;4.17;3.77;;;10.50;99.90;;;;;;478334;248;27979;-76
2023/04/21 09:22:38;;;;;;;4.60;3.90;;;10.50;99.90;;;;;;478390;248;28514;-76
2023/04/21 09:24:39;;;;;;;4.37;3.10;;;10.70;99.90;;;;;;478359;248;28578;-76
2023/04/21 09:26:41;;;;;;;3.90;3.50;;;10.70;99.90;;;;;;478321;248;28485;-76
2023/04/21 09:28:42;;;;;;;3.80;3.50;;;10.70;99.90;;;;;;475516;248;36153;-76
2023/04/21 09:30:43;;;;;;;3.70;3.37;;;10.90;99.90;;;;;;478229;248;27528;-76
2023/04/21 09:32:44;;;;;;;3.60;3.10;;;10.90;99.90;;;;;;478516;248;28055;-76
2023/04/21 09:34:46;;;;;;;4.47;3.17;;;11.00;99.90;;;;;;478271;248;28165;-76
2023/04/21 09:36:47;;;;;;;3.57;2.80;;;11.00;99.90;;;;;;478419;248;27983;-76
2023/04/21 09:38:48;;;;;;;13.53;3.60;;;11.10;99.90;;;;;;478445;248;27944;-77
2023/04/21 09:40:49;;;;;;;5.00;3.00;;;11.30;99.90;;;;;;478436;248;27981;-76
2023/04/21 09:42:51;;;;;;;3.83;2.80;;;11.10;99.90;;;;;;478458;248;28163;-76
2023/04/21 09:44:52;;;;;;;7.10;3.27;;;11.00;99.90;;;;;;478379;248;28400;-76
2023/04/21 09:46:53;;;;;;;8.90;2.67;;;11.30;99.90;;;;;;478271;248;28841;-76
2023/04/21 09:48:54;;;;;;;2.60;2.40;;;11.40;99.90;;;;;;478419;248;29363;-76
2023/04/21 09:50:56;;;;;;;2.63;2.43;;;11.40;99.90;;;;;;478546;248;28628;-76
2023/04/21 09:52:57;;;;;;;2.70;2.50;;;11.40;99.90;;;;;;478499;248;28238;-77
2023/04/21 09:54:58;;;;;;;6.23;2.80;;;11.40;99.90;;;;;;478441;243;28191;-76
2023/04/21 09:57:00;;;;;;;3.47;2.43;;;11.50;99.90;;;;;;478486;248;28321;-76
2023/04/21 09:59:01;;;;;;;2.77;2.53;;;11.80;99.90;;;;;;478536;248;28278;-76
2023/04/21 10:01:03;;;;;;;1.97;1.87;;;11.90;99.90;;;;;;478545;248;28354;-76
2023/04/21 10:03:03;;;;;;;2.07;1.93;;;11.70;99.90;;;;;;478365;248;28329;-75
2023/04/21 10:05:05;;;;;;;2.17;1.97;;;11.90;99.90;;;;;;478523;248;28239;-77
2023/04/21 10:07:06;;;;;;;1.67;1.50;;;12.00;99.90;;;;;;478528;248;28370;-76
2023/04/21 10:09:07;;;;;;;1.87;1.70;;;12.00;99.90;;;;;;478533;248;29696;-77
2023/04/21 10:11:08;;;;;;;2.23;1.60;;;12.20;99.90;;;;;;478556;248;28606;-76
2023/04/21 10:13:09;;;;;;;1.70;1.60;;;12.40;99.90;;;;;;478552;243;28801;-76
2023/04/21 10:15:11;;;;;;;1.80;1.70;;;12.30;99.90;;;;;;478470;248;28639;-76
2023/04/21 10:17:12;;;;;;;1.43;1.33;;;12.30;99.90;;;;;;478542;248;28485;-76
2023/04/21 10:19:13;;;;;;;3.77;1.60;;;12.40;99.90;;;;;;478541;248;28134;-76
2023/04/21 10:21:16;;;;;;;1.60;1.50;;;12.70;99.90;;;;;;478574;248;28665;-77
2023/04/21 10:23:16;;;;;;;1.37;1.27;;;12.80;99.90;;;;;;478395;248;28480;-77
2023/04/21 10:25:18;;;;;;;1.60;1.50;;;;;;;;;;478483;248;28047;-77